sensor_id;sensor_type;location;lat;lon;timestamp;pressure;altitude;pressure_sealevel;temperature;humidity
5283;BME280;15376;48.540;9.268;2022-12-07T00:00:49;97549.41;;;3.07;100.00
5283;BME280;15376;48.540;9.268;2022-12-07T00:03:14;97549.53;;;3.06;100.00
5283;BME280;15376;48.540;9.268;2022-12-07T00:05:39;97549.13;;;3.10;100.00
5283;BME280;15376;48.540;9.268;2022-12-07T00:08:05;97546.78;;;3.07;100.00
5283;BME280;15376;48.540;9.268;2022-12-07T00:10:33;97551.75;;;3.10;100.00
5283;BME280;15376;48.540;9.268;2022-12-07T00:12:58;97545.41;;;3.13;100.00
5283;BME280;15376;48.540;9.268;2022-12-07T00:15:24;97552.31;;;3.14;100.00
5283;BME280;15376;48.540;9.268;2022-12-07T00:17:49;97543.19;;;3.08;100.00
5283;BME280;15376;48.540;9.268;2022-12-07T00:20:14;97543.16;;;2.98;100.00
5283;BME280;15376;48.540;9.268;2022-12-07T00:22:40;97538.44;;;2.92;100.00
5283;BME280;15376;48.540;9.268;2022-12-07T00:25:05;97552.16;;;3.06;100.00
5283;BME280;15376;48.540;9.268;2022-12-07T00:27:30;97557.41;;;3.06;100.00
5283;BME280;15376;48.540;9.268;2022-12-07T00:29:56;97555.22;;;3.11;100.00
5283;BME280;15376;48.540;9.268;2022-12-07T00:32:21;97531.56;;;3.01;100.00
5283;BME280;15376;48.540;9.268;2022-12-07T00:34:46;97549.00;;;3.21;100.00
5283;BME280;15376;48.540;9.268;2022-12-07T00:37:12;97531.88;;;3.08;100.00
5283;BME280;15376;48.540;9.268;2022-12-07T00:39:38;97540.72;;;3.16;100.00
5283;BME280;15376;48.540;9.268;2022-12-07T00:42:03;97542.94;;;3.11;100.00
5283;BME280;15376;48.540;9.268;2022-12-07T00:44:28;97526.47;;;2.99;100.00
5283;BME280;15376;48.540;9.268;2022-12-07T00:46:54;97541.53;;;3.07;100.00
5283;BME280;15376;48.540;9.268;2022-12-07T00:49:23;97540.16;;;3.03;100.00
5283;BME280;15376;48.540;9.268;2022-12-07T00:51:49;97533.63;;;2.97;100.00
5283;BME280;15376;48.540;9.268;2022-12-07T00:54:14;97532.41;;;3.01;100.00
5283;BME280;15376;48.540;9.268;2022-12-07T00:56:40;97519.97;;;2.94;100.00
5283;BME280;15376;48.540;9.268;2022-12-07T00:59:05;97524.81;;;2.98;100.00
5283;BME280;15376;48.540;9.268;2022-12-07T01:01:33;97536.16;;;3.09;100.00
5283;BME280;15376;48.540;9.268;2022-12-07T01:03:59;97523.03;;;3.09;100.00
5283;BME280;15376;48.540;9.268;2022-12-07T01:06:28;97540.16;;;3.13;100.00
5283;BME280;15376;48.540;9.268;2022-12-07T01:08:54;97534.66;;;3.16;100.00
5283;BME280;15376;48.540;9.268;2022-12-07T01:11:22;97534.66;;;3.16;100.00
5283;BME280;15376;48.540;9.268;2022-12-07T01:13:50;97541.81;;;3.14;100.00
5283;BME280;15376;48.540;9.268;2022-12-07T01:16:16;97539.91;;;3.16;100.00
5283;BME280;15376;48.540;9.268;2022-12-07T01:18:46;97527.75;;;3.15;100.00
5283;BME280;15376;48.540;9.268;2022-12-07T01:21:23;97531.31;;;3.04;100.00
5283;BME280;15376;48.540;9.268;2022-12-07T01:23:49;97535.47;;;3.07;100.00
5283;BME280;15376;48.540;9.268;2022-12-07T01:26:20;97531.00;;;2.97;100.00
5283;BME280;15376;48.540;9.268;2022-12-07T01:28:46;97537.34;;;2.95;100.00
5283;BME280;15376;48.540;9.268;2022-12-07T01:31:17;97536.53;;;2.94;100.00
5283;BME280;15376;48.540;9.268;2022-12-07T01:33:44;97555.00;;;2.93;100.00
5283;BME280;15376;48.540;9.268;2022-12-07T01:36:16;97555.53;;;2.87;100.00
5283;BME280;15376;48.540;9.268;2022-12-07T01:38:43;97546.00;;;2.76;100.00
5283;BME280;15376;48.540;9.268;2022-12-07T01:41:09;97554.00;;;2.84;100.00
5283;BME280;15376;48.540;9.268;2022-12-07T01:43:34;97541.47;;;2.78;100.00
5283;BME280;15376;48.540;9.268;2022-12-07T01:46:01;97558.84;;;2.79;100.00
5283;BME280;15376;48.540;9.268;2022-12-07T01:48:30;97554.84;;;2.75;100.00
5283;BME280;15376;48.540;9.268;2022-12-07T01:51:01;97545.56;;;2.71;100.00
5283;BME280;15376;48.540;9.268;2022-12-07T01:53:30;97533.25;;;2.62;100.00
5283;BME280;15376;48.540;9.268;2022-12-07T01:55:58;97545.31;;;2.74;100.00
5283;BME280;15376;48.540;9.268;2022-12-07T01:58:24;97555.25;;;2.80;100.00
5283;BME280;15376;48.540;9.268;2022-12-07T02:00:50;97548.63;;;2.76;100.00
5283;BME280;15376;48.540;9.268;2022-12-07T02:03:25;97552.34;;;2.83;100.00
5283;BME280;15376;48.540;9.268;2022-12-07T02:05:53;97555.53;;;2.87;100.00
5283;BME280;15376;48.540;9.268;2022-12-07T02:08:19;97545.06;;;2.87;100.00
5283;BME280;15376;48.540;9.268;2022-12-07T02:10:45;97559.16;;;2.95;100.00
5283;BME280;15376;48.540;9.268;2022-12-07T02:13:13;97561.41;;;3.00;100.00
5283;BME280;15376;48.540;9.268;2022-12-07T02:19:00;97551.47;;;3.04;100.00
5283;BME280;15376;48.540;9.268;2022-12-07T02:21:51;97561.81;;;3.05;100.00
5283;BME280;15376;48.540;9.268;2022-12-07T02:25:23;97552.00;;;2.97;100.00
5283;BME280;15376;48.540;9.268;2022-12-07T02:30:09;97557.06;;;2.89;100.00
5283;BME280;15376;48.540;9.268;2022-12-07T02:33:05;97555.56;;;2.96;100.00
5283;BME280;15376;48.540;9.268;2022-12-07T02:35:41;97552.00;;;2.97;100.00
5283;BME280;15376;48.540;9.268;2022-12-07T02:38:14;97556.16;;;3.00;100.00
5283;BME280;15376;48.540;9.268;2022-12-07T02:46:06;97542.31;;;2.88;100.00
5283;BME280;15376;48.540;9.268;2022-12-07T02:48:34;97545.88;;;2.87;100.00
5283;BME280;15376;48.540;9.268;2022-12-07T02:51:01;97548.06;;;2.82;100.00
5283;BME280;15376;48.540;9.268;2022-12-07T02:55:54;97540.06;;;2.84;100.00
5283;BME280;15376;48.540;9.268;2022-12-07T02:58:32;97551.81;;;2.89;100.00
5283;BME280;15376;48.540;9.268;2022-12-07T03:01:12;97551.81;;;2.89;100.00
5283;BME280;15376;48.540;9.268;2022-12-07T03:03:47;97539.50;;;2.80;100.00
5283;BME280;15376;48.540;9.268;2022-12-07T03:06:42;97539.81;;;2.77;100.00
5283;BME280;15376;48.540;9.268;2022-12-07T03:10:08;97522.63;;;2.63;100.00
5283;BME280;15376;48.540;9.268;2022-12-07T03:12:18;97541.47;;;2.78;100.00
5283;BME280;15376;48.540;9.268;2022-12-07T03:14:53;97550.28;;;2.77;100.00
5283;BME280;15376;48.540;9.268;2022-12-07T03:17:26;97532.28;;;2.63;100.00
5283;BME280;15376;48.540;9.268;2022-12-07T03:19:56;97537.16;;;2.67;100.00
5283;BME280;15376;48.540;9.268;2022-12-07T03:22:23;97535.34;;;2.68;100.00
5283;BME280;15376;48.540;9.268;2022-12-07T03:24:56;97529.66;;;2.63;100.00
5283;BME280;15376;48.540;9.268;2022-12-07T03:27:26;97539.19;;;2.64;100.00
5283;BME280;15376;48.540;9.268;2022-12-07T03:30:21;97519.28;;;2.52;100.00
5283;BME280;15376;48.540;9.268;2022-12-07T03:32:56;97516.78;;;2.50;100.00
5283;BME280;15376;48.540;9.268;2022-12-07T03:35:40;97522.59;;;2.54;100.00
5283;BME280;15376;48.540;9.268;2022-12-07T03:38:19;97511.41;;;2.52;100.00
5283;BME280;15376;48.540;9.268;2022-12-07T03:40:54;97531.75;;;2.69;100.00
5283;BME280;15376;48.540;9.268;2022-12-07T03:43:22;97536.06;;;2.70;100.00
5283;BME280;15376;48.540;9.268;2022-12-07T03:51:30;97524.44;;;2.63;100.00
5283;BME280;15376;48.540;9.268;2022-12-07T03:54:07;97519.88;;;2.65;100.00
5283;BME280;15376;48.540;9.268;2022-12-07T03:56:36;97521.81;;;2.63;100.00
5283;BME280;15376;48.540;9.268;2022-12-07T03:59:01;97527.03;;;2.63;100.00
5283;BME280;15376;48.540;9.268;2022-12-07T04:01:27;97524.00;;;2.58;100.00
5283;BME280;15376;48.540;9.268;2022-12-07T04:03:52;97531.72;;;2.59;100.00
5283;BME280;15376;48.540;9.268;2022-12-07T04:06:18;97540.41;;;2.60;100.00
5283;BME280;15376;48.540;9.268;2022-12-07T04:08:43;97532.81;;;2.57;100.00
5283;BME280;15376;48.540;9.268;2022-12-07T04:11:08;97537.94;;;2.58;100.00
5283;BME280;15376;48.540;9.268;2022-12-07T04:13:34;97526.16;;;2.53;100.00
5283;BME280;15376;48.540;9.268;2022-12-07T04:16:19;97531.28;;;2.54;100.00
5283;BME280;15376;48.540;9.268;2022-12-07T04:18:45;97539.97;;;2.55;100.00
5283;BME280;15376;48.540;9.268;2022-12-07T04:21:11;97529.75;;;2.52;100.00
5283;BME280;15376;48.540;9.268;2022-12-07T04:23:36;97518.56;;;2.50;100.00
5283;BME280;15376;48.540;9.268;2022-12-07T04:26:01;97511.94;;;2.46;100.00
5283;BME280;15376;48.540;9.268;2022-12-07T04:28:27;97503.22;;;2.36;100.00
5283;BME280;15376;48.540;9.268;2022-12-07T04:30:52;97525.28;;;2.43;100.00
5283;BME280;15376;48.540;9.268;2022-12-07T04:33:17;97524.59;;;2.41;100.00
5283;BME280;15376;48.540;9.268;2022-12-07T04:35:43;97508.72;;;2.32;100.00
5283;BME280;15376;48.540;9.268;2022-12-07T04:38:08;97519.66;;;2.38;100.00
5283;BME280;15376;48.540;9.268;2022-12-07T04:40:34;97526.13;;;2.43;100.00
5283;BME280;15376;48.540;9.268;2022-12-07T04:42:59;97517.84;;;2.38;100.00
5283;BME280;15376;48.540;9.268;2022-12-07T04:45:24;97524.19;;;2.36;100.00
5283;BME280;15376;48.540;9.268;2022-12-07T04:47:50;97523.63;;;2.32;100.00
5283;BME280;15376;48.540;9.268;2022-12-07T04:50:15;97518.50;;;2.30;100.00
5283;BME280;15376;48.540;9.268;2022-12-07T04:52:41;97524.00;;;2.27;100.00
5283;BME280;15376;48.540;9.268;2022-12-07T04:55:06;97523.56;;;2.22;100.00
5283;BME280;15376;48.540;9.268;2022-12-07T04:57:32;97518.19;;;2.24;100.00
5283;BME280;15376;48.540;9.268;2022-12-07T04:59:57;97521.63;;;2.24;100.00
5283;BME280;15376;48.540;9.268;2022-12-07T05:02:22;97514.56;;;2.15;100.00
5283;BME280;15376;48.540;9.268;2022-12-07T05:04:48;97519.88;;;2.04;100.00
5283;BME280;15376;48.540;9.268;2022-12-07T05:07:13;97516.38;;;1.94;100.00
5283;BME280;15376;48.540;9.268;2022-12-07T05:09:38;97512.97;;;2.03;100.00
5283;BME280;15376;48.540;9.268;2022-12-07T05:12:04;97509.22;;;1.96;100.00
5283;BME280;15376;48.540;9.268;2022-12-07T05:14:29;97512.09;;;1.93;100.00
5283;BME280;15376;48.540;9.268;2022-12-07T05:16:54;97511.19;;;1.83;100.00
5283;BME280;15376;48.540;9.268;2022-12-07T05:19:20;97512.22;;;1.71;100.00
5283;BME280;15376;48.540;9.268;2022-12-07T05:21:46;97508.44;;;1.63;100.00
5283;BME280;15376;48.540;9.268;2022-12-07T05:24:13;97508.75;;;1.49;100.00
5283;BME280;15376;48.540;9.268;2022-12-07T05:26:39;97502.88;;;1.36;100.00
5283;BME280;15376;48.540;9.268;2022-12-07T05:29:04;97496.47;;;1.29;100.00
5283;BME280;15376;48.540;9.268;2022-12-07T05:31:30;97506.69;;;1.32;100.00
5283;BME280;15376;48.540;9.268;2022-12-07T05:33:55;97518.56;;;1.36;100.00
5283;BME280;15376;48.540;9.268;2022-12-07T05:36:21;97494.09;;;1.26;100.00
5283;BME280;15376;48.540;9.268;2022-12-07T05:38:47;97504.44;;;1.27;100.00
5283;BME280;15376;48.540;9.268;2022-12-07T05:41:15;97505.03;;;1.31;100.00
5283;BME280;15376;48.540;9.268;2022-12-07T05:44:00;97512.16;;;1.29;100.00
5283;BME280;15376;48.540;9.268;2022-12-07T05:46:25;97511.56;;;1.25;100.00
5283;BME280;15376;48.540;9.268;2022-12-07T05:48:51;97512.94;;;1.20;100.00
5283;BME280;15376;48.540;9.268;2022-12-07T05:51:16;97488.00;;;1.05;100.00
5283;BME280;15376;48.540;9.268;2022-12-07T05:53:41;97508.44;;;1.11;100.00
5283;BME280;15376;48.540;9.268;2022-12-07T05:56:07;97497.06;;;1.00;100.00
5283;BME280;15376;48.540;9.268;2022-12-07T05:58:32;97496.59;;;0.95;100.00
5283;BME280;15376;48.540;9.268;2022-12-07T06:01:16;97509.06;;;0.92;100.00
5283;BME280;15376;48.540;9.268;2022-12-07T06:03:41;97507.06;;;0.84;100.00
5283;BME280;15376;48.540;9.268;2022-12-07T06:06:06;97502.31;;;0.89;100.00
5283;BME280;15376;48.540;9.268;2022-12-07T06:08:32;97486.56;;;0.57;100.00
5283;BME280;15376;48.540;9.268;2022-12-07T06:10:57;97501.28;;;0.58;100.00
5283;BME280;15376;48.540;9.268;2022-12-07T06:13:41;97478.75;;;0.46;100.00
5283;BME280;15376;48.540;9.268;2022-12-07T06:16:06;97491.91;;;0.56;100.00
5283;BME280;15376;48.540;9.268;2022-12-07T06:18:32;97500.47;;;0.58;100.00
5283;BME280;15376;48.540;9.268;2022-12-07T06:20:57;97495.00;;;0.50;100.00
5283;BME280;15376;48.540;9.268;2022-12-07T06:23:23;97499.03;;;0.65;100.00
5283;BME280;15376;48.540;9.268;2022-12-07T06:25:48;97499.03;;;0.76;100.00
5283;BME280;15376;48.540;9.268;2022-12-07T06:28:13;97498.91;;;0.55;100.00
5283;BME280;15376;48.540;9.268;2022-12-07T06:30:39;97509.72;;;0.51;100.00
5283;BME280;15376;48.540;9.268;2022-12-07T06:33:04;97513.06;;;0.30;100.00
5283;BME280;15376;48.540;9.268;2022-12-07T06:35:32;97517.94;;;0.24;100.00
5283;BME280;15376;48.540;9.268;2022-12-07T06:37:58;97515.44;;;0.22;100.00
5283;BME280;15376;48.540;9.268;2022-12-07T06:40:23;97514.16;;;0.28;100.00
5283;BME280;15376;48.540;9.268;2022-12-07T06:42:48;97533.38;;;0.27;100.00
5283;BME280;15376;48.540;9.268;2022-12-07T06:45:14;97530.63;;;0.28;100.00
5283;BME280;15376;48.540;9.268;2022-12-07T06:47:39;97511.88;;;0.23;100.00
5283;BME280;15376;48.540;9.268;2022-12-07T06:50:05;97529.69;;;0.29;100.00
5283;BME280;15376;48.540;9.268;2022-12-07T06:52:32;97523.75;;;0.27;100.00
5283;BME280;15376;48.540;9.268;2022-12-07T06:55:10;97519.97;;;0.31;100.00
5283;BME280;15376;48.540;9.268;2022-12-07T06:57:35;97513.06;;;0.42;100.00
5283;BME280;15376;48.540;9.268;2022-12-07T07:00:01;97519.00;;;0.44;100.00
5283;BME280;15376;48.540;9.268;2022-12-07T07:02:26;97518.16;;;0.43;100.00
5283;BME280;15376;48.540;9.268;2022-12-07T07:04:52;97520.88;;;0.42;100.00
5283;BME280;15376;48.540;9.268;2022-12-07T07:07:17;97530.16;;;0.46;100.00
5283;BME280;15376;48.540;9.268;2022-12-07T07:09:45;97535.25;;;0.47;100.00
5283;BME280;15376;48.540;9.268;2022-12-07T07:12:10;97517.22;;;0.33;100.00
5283;BME280;15376;48.540;9.268;2022-12-07T07:14:35;97523.06;;;0.37;100.00
5283;BME280;15376;48.540;9.268;2022-12-07T07:17:01;97543.94;;;0.48;100.00
5283;BME280;15376;48.540;9.268;2022-12-07T07:19:26;97545.94;;;0.55;100.00
5283;BME280;15376;48.540;9.268;2022-12-07T07:21:52;97544.16;;;0.56;100.00
5283;BME280;15376;48.540;9.268;2022-12-07T07:24:17;97546.44;;;0.60;100.00
5283;BME280;15376;48.540;9.268;2022-12-07T07:26:43;97553.91;;;0.65;100.00
5283;BME280;15376;48.540;9.268;2022-12-07T07:29:08;97540.25;;;0.61;100.00
5283;BME280;15376;48.540;9.268;2022-12-07T07:31:33;97547.72;;;0.77;100.00
5283;BME280;15376;48.540;9.268;2022-12-07T07:34:00;97531.78;;;0.80;100.00
5283;BME280;15376;48.540;9.268;2022-12-07T07:36:26;97549.59;;;0.97;100.00
5283;BME280;15376;48.540;9.268;2022-12-07T07:38:51;97538.28;;;0.97;100.00
5283;BME280;15376;48.540;9.268;2022-12-07T07:41:16;97529.25;;;1.01;100.00
5283;BME280;15376;48.540;9.268;2022-12-07T07:43:42;97541.97;;;1.06;100.00
5283;BME280;15376;48.540;9.268;2022-12-07T07:46:07;97529.13;;;1.03;100.00
5283;BME280;15376;48.540;9.268;2022-12-07T07:48:32;97533.41;;;1.15;100.00
5283;BME280;15376;48.540;9.268;2022-12-07T07:50:58;97540.66;;;1.11;100.00
5283;BME280;15376;48.540;9.268;2022-12-07T07:53:23;97527.47;;;1.13;100.00
5283;BME280;15376;48.540;9.268;2022-12-07T07:55:53;97540.47;;;1.24;100.00
5283;BME280;15376;48.540;9.268;2022-12-07T07:58:18;97555.06;;;1.38;100.00
5283;BME280;15376;48.540;9.268;2022-12-07T08:00:44;97559.47;;;1.37;100.00
5283;BME280;15376;48.540;9.268;2022-12-07T08:03:09;97563.59;;;1.51;100.00
5283;BME280;15376;48.540;9.268;2022-12-07T08:05:36;97553.13;;;1.51;100.00
5283;BME280;15376;48.540;9.268;2022-12-07T08:08:02;97546.81;;;1.53;100.00
5283;BME280;15376;48.540;9.268;2022-12-07T08:10:28;97567.25;;;1.59;100.00
5283;BME280;15376;48.540;9.268;2022-12-07T08:12:53;97574.53;;;1.77;100.00
5283;BME280;15376;48.540;9.268;2022-12-07T08:15:38;97555.63;;;1.73;100.00
5283;BME280;15376;48.540;9.268;2022-12-07T08:18:03;97580.69;;;1.87;100.00
5283;BME280;15376;48.540;9.268;2022-12-07T08:20:30;97585.88;;;1.98;100.00
5283;BME280;15376;48.540;9.268;2022-12-07T08:22:56;97575.66;;;1.95;100.00
5283;BME280;15376;48.540;9.268;2022-12-07T08:25:22;97579.59;;;2.10;100.00
5283;BME280;15376;48.540;9.268;2022-12-07T08:27:47;97587.53;;;1.99;100.00
5283;BME280;15376;48.540;9.268;2022-12-07T08:30:13;97579.09;;;2.16;100.00
5283;BME280;15376;48.540;9.268;2022-12-07T08:32:39;97576.66;;;2.24;100.00
5283;BME280;15376;48.540;9.268;2022-12-07T08:35:05;97569.25;;;2.29;100.00
5283;BME280;15376;48.540;9.268;2022-12-07T08:37:31;97576.50;;;2.47;100.00
5283;BME280;15376;48.540;9.268;2022-12-07T08:39:57;97576.53;;;2.56;100.00
5283;BME280;15376;48.540;9.268;2022-12-07T08:42:22;97582.28;;;2.71;100.00
5283;BME280;15376;48.540;9.268;2022-12-07T08:44:52;97572.06;;;2.68;100.00
5283;BME280;15376;48.540;9.268;2022-12-07T08:47:18;97570.69;;;2.74;100.00
5283;BME280;15376;48.540;9.268;2022-12-07T08:49:46;97585.06;;;2.79;100.00
5283;BME280;15376;48.540;9.268;2022-12-07T08:52:13;97568.66;;;2.77;100.00
5283;BME280;15376;48.540;9.268;2022-12-07T08:54:39;97574.06;;;2.95;100.00
5283;BME280;15376;48.540;9.268;2022-12-07T08:57:06;97581.28;;;3.03;100.00
5283;BME280;15376;48.540;9.268;2022-12-07T08:59:34;97578.28;;;3.17;100.00
5283;BME280;15376;48.540;9.268;2022-12-07T09:02:00;97577.16;;;3.10;100.00
5283;BME280;15376;48.540;9.268;2022-12-07T09:04:25;97576.06;;;3.22;100.00
5283;BME280;15376;48.540;9.268;2022-12-07T09:06:51;97579.66;;;3.21;100.00
5283;BME280;15376;48.540;9.268;2022-12-07T09:09:17;97580.50;;;3.12;100.00
5283;BME280;15376;48.540;9.268;2022-12-07T09:11:42;97568.06;;;3.14;100.00
5283;BME280;15376;48.540;9.268;2022-12-07T09:14:09;97578.59;;;3.33;100.00
5283;BME280;15376;48.540;9.268;2022-12-07T09:16:35;97567.53;;;3.39;100.00
5283;BME280;15376;48.540;9.268;2022-12-07T09:19:00;97577.66;;;3.53;100.00
5283;BME280;15376;48.540;9.268;2022-12-07T09:21:28;97554.16;;;3.42;100.00
5283;BME280;15376;48.540;9.268;2022-12-07T09:23:53;97568.94;;;3.53;100.00
5283;BME280;15376;48.540;9.268;2022-12-07T09:26:19;97575.47;;;3.58;100.00
5283;BME280;15376;48.540;9.268;2022-12-07T09:28:44;97573.22;;;3.63;100.00
5283;BME280;15376;48.540;9.268;2022-12-07T09:31:10;97574.75;;;3.66;100.00
5283;BME280;15376;48.540;9.268;2022-12-07T09:33:35;97573.91;;;3.65;100.00
5283;BME280;15376;48.540;9.268;2022-12-07T09:36:00;97546.56;;;3.39;100.00
5283;BME280;15376;48.540;9.268;2022-12-07T09:38:26;97564.97;;;3.58;100.00
5283;BME280;15376;48.540;9.268;2022-12-07T09:40:52;97572.53;;;3.71;100.00
5283;BME280;15376;48.540;9.268;2022-12-07T09:43:21;97560.38;;;3.80;100.00
5283;BME280;15376;48.540;9.268;2022-12-07T09:45:50;97563.84;;;3.90;100.00
5283;BME280;15376;48.540;9.268;2022-12-07T09:48:18;97545.19;;;3.93;100.00
5283;BME280;15376;48.540;9.268;2022-12-07T09:50:46;97554.84;;;3.92;100.00
5283;BME280;15376;48.540;9.268;2022-12-07T09:53:17;97547.81;;;3.93;100.00
5283;BME280;15376;48.540;9.268;2022-12-07T09:55:43;97527.75;;;3.82;100.00
5283;BME280;15376;48.540;9.268;2022-12-07T09:58:20;97542.13;;;3.97;100.00
5283;BME280;15376;48.540;9.268;2022-12-07T10:00:47;97541.53;;;4.03;100.00
5283;BME280;15376;48.540;9.268;2022-12-07T10:03:12;97540.72;;;4.03;100.00
5283;BME280;15376;48.540;9.268;2022-12-07T10:05:49;97547.19;;;4.18;100.00
5283;BME280;15376;48.540;9.268;2022-12-07T10:08:15;97533.78;;;4.21;100.00
5283;BME280;15376;48.540;9.268;2022-12-07T10:10:43;97520.22;;;4.16;100.00
5283;BME280;15376;48.540;9.268;2022-12-07T10:13:14;97519.34;;;4.35;100.00
5283;BME280;15376;48.540;9.268;2022-12-07T10:15:56;97519.56;;;4.51;100.00
5283;BME280;15376;48.540;9.268;2022-12-07T10:21:11;97526.66;;;4.78;100.00
5283;BME280;15376;48.540;9.268;2022-12-07T10:23:43;97526.75;;;4.49;100.00
5283;BME280;15376;48.540;9.268;2022-12-07T10:26:33;97527.88;;;4.47;100.00
5283;BME280;15376;48.540;9.268;2022-12-07T10:29:02;97509.28;;;4.58;100.00
5283;BME280;15376;48.540;9.268;2022-12-07T10:31:39;97522.75;;;4.82;100.00
5283;BME280;15376;48.540;9.268;2022-12-07T10:34:24;97522.22;;;4.79;100.00
5283;BME280;15376;48.540;9.268;2022-12-07T10:36:52;97519.38;;;4.62;100.00
5283;BME280;15376;48.540;9.268;2022-12-07T10:39:20;97515.97;;;4.52;100.00
5283;BME280;15376;48.540;9.268;2022-12-07T10:41:53;97510.09;;;4.68;100.00
5283;BME280;15376;48.540;9.268;2022-12-07T10:44:28;97505.16;;;4.55;100.00
5283;BME280;15376;48.540;9.268;2022-12-07T10:47:33;97504.19;;;4.84;100.00
5283;BME280;15376;48.540;9.268;2022-12-07T10:50:16;97504.63;;;5.07;100.00
5283;BME280;15376;48.540;9.268;2022-12-07T10:53:05;97503.72;;;5.16;100.00
5283;BME280;15376;48.540;9.268;2022-12-07T10:56:01;97497.50;;;4.89;100.00
5283;BME280;15376;48.540;9.268;2022-12-07T10:58:40;97494.81;;;4.99;100.00
5283;BME280;15376;48.540;9.268;2022-12-07T11:01:45;97489.41;;;5.00;100.00
5283;BME280;15376;48.540;9.268;2022-12-07T11:04:35;97491.13;;;4.92;100.00
5283;BME280;15376;48.540;9.268;2022-12-07T11:07:27;97482.31;;;4.83;100.00
5283;BME280;15376;48.540;9.268;2022-12-07T11:10:21;97482.59;;;4.80;100.00
5283;BME280;15376;48.540;9.268;2022-12-07T11:18:33;97474.88;;;4.79;100.00
5283;BME280;15376;48.540;9.268;2022-12-07T11:21:26;97472.44;;;4.67;100.00
5283;BME280;15376;48.540;9.268;2022-12-07T11:24:01;97477.13;;;4.74;100.00
5283;BME280;15376;48.540;9.268;2022-12-07T11:31:53;97465.88;;;4.99;100.00
5283;BME280;15376;48.540;9.268;2022-12-07T11:34:59;97460.22;;;4.76;100.00
5283;BME280;15376;48.540;9.268;2022-12-07T11:37:32;97452.88;;;4.97;100.00
5283;BME280;15376;48.540;9.268;2022-12-07T11:40:15;97451.16;;;5.06;100.00
5283;BME280;15376;48.540;9.268;2022-12-07T11:42:48;97443.78;;;5.10;100.00
5283;BME280;15376;48.540;9.268;2022-12-07T11:45:22;97453.94;;;5.05;100.00
5283;BME280;15376;48.540;9.268;2022-12-07T12:06:38;97414.22;;;5.33;100.00
5283;BME280;15376;48.540;9.268;2022-12-07T12:15:11;97414.59;;;5.21;100.00
5283;BME280;15376;48.540;9.268;2022-12-07T12:23:09;97380.50;;;5.37;100.00
5283;BME280;15376;48.540;9.268;2022-12-07T12:25:44;97406.66;;;5.56;100.00
5283;BME280;15376;48.540;9.268;2022-12-07T12:28:21;97406.75;;;5.47;100.00
5283;BME280;15376;48.540;9.268;2022-12-07T12:31:14;97405.94;;;5.46;100.00
5283;BME280;15376;48.540;9.268;2022-12-07T12:34:01;97399.69;;;5.29;100.00
5283;BME280;15376;48.540;9.268;2022-12-07T12:39:14;97399.84;;;5.28;100.00
5283;BME280;15376;48.540;9.268;2022-12-07T12:46:57;97398.50;;;5.24;100.00
5283;BME280;15376;48.540;9.268;2022-12-07T12:49:40;97395.81;;;5.16;100.00
5283;BME280;15376;48.540;9.268;2022-12-07T12:52:46;97395.75;;;5.08;100.00
5283;BME280;15376;48.540;9.268;2022-12-07T12:55:00;97396.00;;;4.87;100.00
5283;BME280;15376;48.540;9.268;2022-12-07T12:57:29;97396.56;;;4.73;100.00
5283;BME280;15376;48.540;9.268;2022-12-07T13:15:41;97376.41;;;4.99;100.00
5283;BME280;15376;48.540;9.268;2022-12-07T13:20:59;97362.19;;;5.10;100.00
5283;BME280;15376;48.540;9.268;2022-12-07T13:23:37;97367.47;;;5.10;100.00
5283;BME280;15376;48.540;9.268;2022-12-07T13:28:50;97362.94;;;4.84;100.00
5283;BME280;15376;48.540;9.268;2022-12-07T13:33:50;97353.94;;;4.69;100.00
5283;BME280;15376;48.540;9.268;2022-12-07T13:36:26;97363.19;;;4.73;100.00
5283;BME280;15376;48.540;9.268;2022-12-07T13:41:29;97351.06;;;4.80;100.00
5283;BME280;15376;48.540;9.268;2022-12-07T13:44:17;97353.19;;;4.94;100.00
5283;BME280;15376;48.540;9.268;2022-12-07T13:46:50;97359.34;;;4.85;100.00
5283;BME280;15376;48.540;9.268;2022-12-07T13:49:26;97355.72;;;4.86;100.00
5283;BME280;15376;48.540;9.268;2022-12-07T13:51:53;97352.06;;;4.79;100.00
5283;BME280;15376;48.540;9.268;2022-12-07T13:54:19;97348.69;;;4.69;100.00
5283;BME280;15376;48.540;9.268;2022-12-07T13:56:49;97350.31;;;4.70;100.00
5283;BME280;15376;48.540;9.268;2022-12-07T13:59:24;97342.44;;;4.70;100.00
5283;BME280;15376;48.540;9.268;2022-12-07T14:01:51;97347.03;;;4.68;100.00
5283;BME280;15376;48.540;9.268;2022-12-07T14:04:30;97343.41;;;4.69;100.00
5283;BME280;15376;48.540;9.268;2022-12-07T14:06:56;97342.44;;;4.70;100.00
5283;BME280;15376;48.540;9.268;2022-12-07T14:09:24;97347.94;;;4.77;100.00
5283;BME280;15376;48.540;9.268;2022-12-07T14:11:54;97347.44;;;4.81;100.00
5283;BME280;15376;48.540;9.268;2022-12-07T14:14:22;97352.38;;;4.76;100.00
5283;BME280;15376;48.540;9.268;2022-12-07T14:17:19;97348.22;;;4.74;100.00
5283;BME280;15376;48.540;9.268;2022-12-07T14:22:22;97340.09;;;4.67;100.00
5283;BME280;15376;48.540;9.268;2022-12-07T14:24:48;97345.38;;;4.67;100.00
5283;BME280;15376;48.540;9.268;2022-12-07T14:27:21;97342.06;;;4.65;100.00
5283;BME280;15376;48.540;9.268;2022-12-07T14:29:48;97332.66;;;4.62;100.00
5283;BME280;15376;48.540;9.268;2022-12-07T14:32:19;97339.94;;;4.51;100.00
5283;BME280;15376;48.540;9.268;2022-12-07T14:35:12;97336.78;;;4.47;100.00
5283;BME280;15376;48.540;9.268;2022-12-07T14:37:39;97344.22;;;4.34;100.00
5283;BME280;15376;48.540;9.268;2022-12-07T14:40:05;97340.50;;;4.27;100.00
5283;BME280;15376;48.540;9.268;2022-12-07T14:42:32;97335.00;;;4.20;100.00
5283;BME280;15376;48.540;9.268;2022-12-07T14:44:59;97337.63;;;4.20;100.00
5283;BME280;15376;48.540;9.268;2022-12-07T14:47:28;97342.00;;;4.29;100.00
5283;BME280;15376;48.540;9.268;2022-12-07T14:49:53;97345.22;;;4.23;100.00
5283;BME280;15376;48.540;9.268;2022-12-07T14:52:25;97335.97;;;4.19;100.00
5283;BME280;15376;48.540;9.268;2022-12-07T14:54:52;97341.53;;;4.16;100.00
5283;BME280;15376;48.540;9.268;2022-12-07T14:57:17;97336.72;;;4.12;100.00
5283;BME280;15376;48.540;9.268;2022-12-07T14:59:43;97325.94;;;4.05;100.00
5283;BME280;15376;48.540;9.268;2022-12-07T15:02:11;97344.31;;;4.15;100.00
5283;BME280;15376;48.540;9.268;2022-12-07T15:04:37;97339.78;;;4.07;100.00